Time;durP1;ratioP1;P1;durP2;ratioP2;P2;SDS_P1;SDS_P2;PMS_P1;PMS_P2;Temp;Humidity;BMP_temperature;BMP_pressure;BME280_temperature;BME280_humidity;BME280_pressure;Samples;Min_cycle;Max_cycle;Signal;HPM_P1;HPM_P2
2022/03/25 00:00:49;;;;;;;23.67;10.38;;;14.00;34.30;;;;;;4999796;28;20124;-87
2022/03/25 00:03:15;;;;;;;23.88;11.00;;;14.00;34.30;;;;;;4996630;28;20133;-86
2022/03/25 00:05:41;;;;;;;22.25;11.13;;;13.90;34.40;;;;;;4999091;28;20052;-86
2022/03/25 00:08:08;;;;;;;23.05;10.43;;;13.90;34.40;;;;;;5001893;28;20050;-86
2022/03/25 00:10:34;;;;;;;24.00;10.27;;;13.90;34.40;;;;;;4999575;28;20047;-87
2022/03/25 00:13:00;;;;;;;24.38;11.07;;;13.90;34.40;;;;;;5000760;28;20397;-87
2022/03/25 00:15:26;;;;;;;21.63;10.70;;;13.90;34.50;;;;;;4981118;28;20081;-82
2022/03/25 00:17:52;;;;;;;25.13;11.35;;;13.80;34.50;;;;;;4984391;28;20038;-83
2022/03/25 00:20:18;;;;;;;19.05;10.70;;;13.90;34.60;;;;;;5001417;28;20084;-88
2022/03/25 00:22:44;;;;;;;23.95;11.52;;;13.90;34.60;;;;;;4980896;28;20485;-87
2022/03/25 00:25:11;;;;;;;20.33;9.88;;;13.80;34.70;;;;;;5002952;28;20045;-86
2022/03/25 00:27:36;;;;;;;24.42;10.35;;;13.80;34.70;;;;;;4998914;28;20034;-87
2022/03/25 00:30:04;;;;;;;19.60;10.25;;;13.80;34.80;;;;;;4985937;28;20030;-83
2022/03/25 00:32:30;;;;;;;18.83;10.10;;;13.80;35.00;;;;;;4969088;28;20053;-86
2022/03/25 00:34:56;;;;;;;20.02;10.02;;;13.80;35.00;;;;;;5002416;28;20034;-87
2022/03/25 00:37:23;;;;;;;20.55;10.70;;;13.70;35.10;;;;;;4986491;28;20096;-88
2022/03/25 00:39:48;;;;;;;20.20;10.80;;;13.70;35.10;;;;;;5003088;28;20517;-86
2022/03/25 00:42:16;;;;;;;16.65;9.85;;;13.70;35.10;;;;;;4975083;28;21076;-86
2022/03/25 00:44:42;;;;;;;21.67;10.77;;;13.70;35.20;;;;;;5007368;28;20074;-83
2022/03/25 00:47:09;;;;;;;21.08;10.75;;;13.60;35.20;;;;;;4987739;28;20129;-87
2022/03/25 00:49:38;;;;;;;19.88;10.68;;;13.60;35.20;;;;;;4992264;28;20037;-86
2022/03/25 00:52:05;;;;;;;21.83;10.60;;;13.60;35.20;;;;;;5019504;28;20046;-77
2022/03/25 00:54:31;;;;;;;21.98;11.60;;;13.60;35.20;;;;;;5015646;28;20038;-87
2022/03/25 00:56:57;;;;;;;25.30;11.27;;;13.50;35.20;;;;;;4971055;28;20041;-87
2022/03/25 00:59:23;;;;;;;21.08;11.55;;;13.50;35.20;;;;;;5004205;28;20040;-81
2022/03/25 01:01:49;;;;;;;19.30;10.82;;;13.50;35.20;;;;;;4989122;28;20072;-84
2022/03/25 01:04:16;;;;;;;21.08;11.65;;;13.50;35.20;;;;;;4991879;28;20112;-87
2022/03/25 01:06:43;;;;;;;23.65;11.73;;;13.50;35.20;;;;;;5006181;28;21478;-83
2022/03/25 01:09:09;;;;;;;20.70;10.48;;;13.50;35.30;;;;;;5002764;28;20532;-85
2022/03/25 01:11:35;;;;;;;20.55;11.00;;;13.50;35.30;;;;;;5002520;28;20034;-85
2022/03/25 01:14:03;;;;;;;21.42;10.85;;;13.50;35.30;;;;;;4974735;28;20037;-83
2022/03/25 01:16:29;;;;;;;22.05;10.63;;;13.50;35.30;;;;;;4985598;28;20041;-87
2022/03/25 01:18:55;;;;;;;20.50;11.07;;;13.40;35.30;;;;;;5005475;28;20045;-87
2022/03/25 01:21:20;;;;;;;19.60;11.05;;;13.40;35.30;;;;;;4986334;28;20037;-87
2022/03/25 01:23:48;;;;;;;20.83;10.65;;;13.40;35.40;;;;;;5002459;28;20042;-85
2022/03/25 01:26:15;;;;;;;18.80;10.85;;;13.40;35.40;;;;;;5006062;28;20088;-86
2022/03/25 01:28:41;;;;;;;20.48;10.40;;;13.40;35.40;;;;;;4987092;28;20469;-87
2022/03/25 01:31:11;;;;;;;19.10;11.20;;;13.40;35.40;;;;;;4986972;28;20080;-88
2022/03/25 01:33:37;;;;;;;18.85;10.77;;;13.40;35.40;;;;;;4973335;28;20038;-87
2022/03/25 01:36:04;;;;;;;21.35;10.52;;;13.30;35.40;;;;;;4968790;28;20042;-88
2022/03/25 01:38:30;;;;;;;20.95;10.40;;;13.30;35.40;;;;;;4973936;28;20045;-85
2022/03/25 01:40:59;;;;;;;18.42;10.55;;;13.30;35.50;;;;;;4964871;28;20037;-87
2022/03/25 01:43:25;;;;;;;17.60;10.38;;;13.30;35.40;;;;;;4986010;28;20613;-87
2022/03/25 01:45:51;;;;;;;20.85;10.18;;;13.40;35.50;;;;;;4982173;28;20102;-87
2022/03/25 01:48:17;;;;;;;19.42;10.95;;;13.30;35.50;;;;;;4985984;28;20389;-91
2022/03/25 01:50:46;;;;;;;20.10;10.45;;;13.30;36.10;;;;;;4967480;28;20043;-86
2022/03/25 01:53:18;;;;;;;19.15;11.27;;;13.30;35.50;;;;;;4973077;28;20038;-93
2022/03/25 01:56:19;;;;;;;15.93;10.68;;;13.30;35.50;;;;;;4977449;28;20046;-79
2022/03/25 01:58:45;;;;;;;19.33;10.90;;;13.30;35.60;;;;;;4957499;28;20042;-83
2022/03/25 02:01:11;;;;;;;17.38;10.48;;;13.30;35.60;;;;;;4994458;28;20077;-90
2022/03/25 02:03:37;;;;;;;20.90;11.23;;;13.20;35.50;;;;;;4999305;28;20429;-90
2022/03/25 02:06:09;;;;;;;20.90;10.75;;;13.20;35.60;;;;;;4983147;28;20085;-85
2022/03/25 02:08:35;;;;;;;19.48;10.68;;;13.20;35.60;;;;;;5004064;28;20046;-87
2022/03/25 02:11:01;;;;;;;23.58;11.80;;;13.20;35.70;;;;;;5005252;28;20125;-91
2022/03/25 02:13:27;;;;;;;20.48;10.48;;;13.20;35.70;;;;;;4971009;28;20041;-89
2022/03/25 02:15:59;;;;;;;24.88;11.48;;;13.20;35.70;;;;;;4972008;28;20111;-89
2022/03/25 02:18:25;;;;;;;18.88;12.45;;;13.10;35.70;;;;;;4957969;28;20456;-88
2022/03/25 02:20:52;;;;;;;20.30;11.40;;;13.10;35.80;;;;;;4968030;28;20129;-89
2022/03/25 02:23:22;;;;;;;21.73;11.88;;;13.10;35.80;;;;;;4987624;28;20063;-92
2022/03/25 02:25:53;;;;;;;21.13;12.25;;;13.10;35.80;;;;;;5003871;28;20065;-93
2022/03/25 02:28:20;;;;;;;18.70;11.00;;;13.10;35.90;;;;;;5005602;28;20042;-92
2022/03/25 02:30:48;;;;;;;18.25;11.43;;;13.00;35.90;;;;;;4989475;28;20030;-90
2022/03/25 02:33:14;;;;;;;20.73;11.77;;;13.00;35.90;;;;;;4984114;28;20442;-92
2022/03/25 02:35:48;;;;;;;21.00;11.45;;;13.00;36.00;;;;;;5002606;28;20045;-92
2022/03/25 02:38:20;;;;;;;20.60;11.07;;;13.00;36.10;;;;;;4975269;28;20026;-92
2022/03/25 02:40:47;;;;;;;22.08;11.52;;;13.00;36.30;;;;;;4957312;28;20032;-89
2022/03/25 02:43:13;;;;;;;18.83;11.73;;;13.00;36.20;;;;;;5003072;28;20022;-88
2022/03/25 02:45:44;;;;;;;21.17;11.57;;;13.00;36.20;;;;;;4988197;28;20030;-88
2022/03/25 02:48:11;;;;;;;20.58;10.60;;;13.00;36.20;;;;;;5009336;28;20038;-90
2022/03/25 02:50:38;;;;;;;22.42;11.25;;;13.00;36.30;;;;;;4988477;28;20065;-88
2022/03/25 02:53:04;;;;;;;22.08;11.20;;;12.90;36.30;;;;;;4993604;28;20049;-85
2022/03/25 02:55:30;;;;;;;21.35;10.85;;;12.90;36.40;;;;;;5022155;28;20042;-82
2022/03/25 02:57:56;;;;;;;22.73;10.90;;;12.90;36.40;;;;;;5007420;28;20056;-90
2022/03/25 03:00:25;;;;;;;28.42;11.65;;;12.90;36.50;;;;;;4996267;28;21305;-84
2022/03/25 03:02:52;;;;;;;23.23;11.32;;;12.90;36.50;;;;;;5003034;28;20046;-90
2022/03/25 03:05:18;;;;;;;23.45;11.02;;;12.80;36.60;;;;;;5002574;28;20064;-90
2022/03/25 03:07:47;;;;;;;20.50;11.18;;;12.80;36.60;;;;;;5015148;28;20105;-82
2022/03/25 03:10:14;;;;;;;30.55;12.73;;;12.80;36.70;;;;;;4987661;28;20039;-89
2022/03/25 03:12:41;;;;;;;32.72;12.73;;;12.80;36.80;;;;;;5001755;28;20054;-88
2022/03/25 03:15:08;;;;;;;19.15;11.13;;;12.80;36.90;;;;;;5000783;28;20592;-87
2022/03/25 03:17:34;;;;;;;23.48;11.32;;;12.70;36.90;;;;;;4982460;28;20528;-89
2022/03/25 03:20:00;;;;;;;23.15;12.07;;;12.70;36.90;;;;;;4984011;28;20045;-92
2022/03/25 03:22:26;;;;;;;26.38;13.20;;;12.70;36.90;;;;;;4985539;28;20030;-93
2022/03/25 03:24:52;;;;;;;22.75;11.48;;;12.70;37.00;;;;;;5002970;28;20034;-91
2022/03/25 03:27:18;;;;;;;22.83;11.55;;;12.70;37.10;;;;;;4993949;28;20038;-89
2022/03/25 03:29:44;;;;;;;31.38;12.95;;;12.70;37.10;;;;;;5008920;28;20037;-83
2022/03/25 03:32:10;;;;;;;22.30;11.70;;;12.60;37.20;;;;;;5001053;28;20034;-84
2022/03/25 03:34:36;;;;;;;23.58;10.90;;;12.60;37.20;;;;;;4982868;28;20030;-83
2022/03/25 03:37:03;;;;;;;23.00;11.30;;;12.70;37.50;;;;;;4987045;28;20112;-85
2022/03/25 03:39:29;;;;;;;26.38;11.38;;;12.70;37.80;;;;;;5001166;28;20034;-85
2022/03/25 03:41:55;;;;;;;20.73;12.25;;;12.70;38.00;;;;;;4979804;28;20065;-86
2022/03/25 03:44:23;;;;;;;23.17;12.30;;;12.70;38.20;;;;;;4983692;28;20045;-85
2022/03/25 03:46:49;;;;;;;20.70;11.52;;;12.70;38.20;;;;;;4980874;28;20297;-86
2022/03/25 03:49:15;;;;;;;23.17;12.02;;;12.80;38.30;;;;;;5002717;28;20111;-86
2022/03/25 03:51:41;;;;;;;25.48;12.43;;;12.70;38.40;;;;;;4997467;28;20074;-84
2022/03/25 03:54:07;;;;;;;24.73;12.95;;;12.80;38.50;;;;;;4968494;28;20038;-85
2022/03/25 03:56:51;;;;;;;20.38;12.00;;;12.80;38.50;;;;;;5003290;28;20422;-84
2022/03/25 03:59:17;;;;;;;24.33;11.82;;;12.80;38.50;;;;;;4983999;28;20049;-85
2022/03/25 04:01:43;;;;;;;22.58;11.38;;;12.80;38.60;;;;;;4987397;28;20041;-81
2022/03/25 04:04:09;;;;;;;26.60;12.43;;;12.80;38.60;;;;;;5004913;28;20370;-83
2022/03/25 04:06:35;;;;;;;23.25;11.95;;;12.80;38.60;;;;;;4972581;28;20109;-86
2022/03/25 04:09:01;;;;;;;28.98;12.15;;;12.80;38.50;;;;;;5003879;28;20087;-85
2022/03/25 04:11:27;;;;;;;21.13;11.50;;;12.80;38.50;;;;;;4990238;28;20034;-84
2022/03/25 04:13:53;;;;;;;23.83;11.48;;;12.80;39.10;;;;;;5002540;28;20491;-85
2022/03/25 04:16:21;;;;;;;25.60;11.65;;;12.80;38.50;;;;;;5003215;28;20046;-86
2022/03/25 04:18:47;;;;;;;24.52;11.73;;;12.80;38.50;;;;;;4959224;28;20117;-84
2022/03/25 04:21:13;;;;;;;24.60;12.02;;;12.90;38.60;;;;;;4986469;28;20453;-87
2022/03/25 04:23:39;;;;;;;22.27;12.25;;;12.90;38.70;;;;;;4973652;28;20053;-86
2022/03/25 04:26:05;;;;;;;22.02;11.63;;;12.90;38.70;;;;;;4984627;28;20038;-85
2022/03/25 04:28:31;;;;;;;20.65;11.90;;;12.90;38.70;;;;;;5003660;28;20565;-87
2022/03/25 04:30:57;;;;;;;22.17;11.93;;;12.90;38.60;;;;;;4974583;28;20040;-88
2022/03/25 04:33:23;;;;;;;23.60;11.57;;;12.90;38.60;;;;;;5002909;28;20038;-85
2022/03/25 04:35:49;;;;;;;23.90;11.88;;;12.90;38.70;;;;;;5002480;28;20096;-85
2022/03/25 04:38:15;;;;;;;27.05;12.57;;;12.90;38.80;;;;;;4984895;28;20030;-86
2022/03/25 04:40:41;;;;;;;21.80;11.38;;;12.90;38.90;;;;;;5005406;28;20084;-86
2022/03/25 04:43:08;;;;;;;20.38;11.82;;;12.90;38.90;;;;;;5006183;28;20073;-88
2022/03/25 04:45:35;;;;;;;26.13;12.40;;;12.90;38.90;;;;;;5004674;28;20035;-90
2022/03/25 04:48:01;;;;;;;27.75;13.18;;;12.90;38.90;;;;;;5003559;28;20034;-92
2022/03/25 04:50:27;;;;;;;24.02;12.35;;;12.90;39.00;;;;;;5002549;28;20182;-83
2022/03/25 04:52:54;;;;;;;25.45;12.20;;;12.90;38.90;;;;;;4973282;28;20112;-82
2022/03/25 04:55:20;;;;;;;24.02;12.07;;;12.90;38.90;;;;;;5003214;28;20053;-84
2022/03/25 04:57:47;;;;;;;21.52;12.00;;;12.90;39.00;;;;;;4990242;28;20092;-82
2022/03/25 05:00:14;;;;;;;23.80;11.90;;;12.90;39.00;;;;;;5001727;28;20046;-83
2022/03/25 05:02:40;;;;;;;22.90;12.77;;;12.90;39.10;;;;;;4984219;28;20648;-82
2022/03/25 05:05:07;;;;;;;23.75;11.98;;;12.90;39.10;;;;;;5002936;28;20229;-82
2022/03/25 05:07:33;;;;;;;26.77;12.57;;;12.90;39.20;;;;;;4987978;28;20030;-83
2022/03/25 05:10:00;;;;;;;26.38;11.50;;;12.90;39.20;;;;;;5004919;28;20355;-82
2022/03/25 05:12:30;;;;;;;22.00;11.93;;;13.00;39.30;;;;;;4973203;28;20033;-82
2022/03/25 05:14:56;;;;;;;21.73;12.68;;;13.00;39.20;;;;;;4985440;28;20144;-81
2022/03/25 05:17:22;;;;;;;22.65;11.93;;;13.00;39.00;;;;;;5001796;28;20121;-79
2022/03/25 05:19:48;;;;;;;29.00;12.95;;;13.00;39.60;;;;;;4985611;28;20036;-82
2022/03/25 05:22:14;;;;;;;26.90;13.63;;;13.00;39.00;;;;;;4970589;28;20040;-82
2022/03/25 05:24:40;;;;;;;29.23;13.40;;;13.00;39.00;;;;;;5002316;28;20444;-82
2022/03/25 05:27:06;;;;;;;29.20;14.55;;;12.90;38.90;;;;;;5000055;28;20041;-84
2022/03/25 05:29:32;;;;;;;27.70;13.60;;;12.90;39.10;;;;;;4971776;28;20035;-83
2022/03/25 05:31:58;;;;;;;26.70;13.10;;;12.90;39.00;;;;;;5002110;28;20030;-82
2022/03/25 05:34:24;;;;;;;31.50;14.55;;;13.00;39.00;;;;;;4999885;28;20030;-85
2022/03/25 05:36:50;;;;;;;27.00;13.95;;;13.00;39.60;;;;;;5001296;28;20044;-85
2022/03/25 05:39:16;;;;;;;31.58;13.07;;;13.00;39.00;;;;;;4983770;28;20046;-84
2022/03/25 05:41:43;;;;;;;27.80;14.10;;;13.00;39.00;;;;;;5000771;28;20120;-84
2022/03/25 05:44:08;;;;;;;25.30;12.50;;;13.00;38.90;;;;;;5002049;28;20045;-85
2022/03/25 05:46:35;;;;;;;33.13;14.40;;;13.00;38.90;;;;;;4987952;28;20026;-84
2022/03/25 05:49:02;;;;;;;23.45;13.07;;;13.00;38.90;;;;;;5001777;28;20401;-91
2022/03/25 05:51:29;;;;;;;27.85;13.85;;;13.00;38.90;;;;;;4967524;28;20096;-84
2022/03/25 05:53:55;;;;;;;27.88;13.70;;;13.10;40.60;;;;;;5002307;28;20043;-87
2022/03/25 05:56:21;;;;;;;45.53;20.95;;;13.10;40.30;;;;;;4957046;28;20033;-86
2022/03/25 05:58:46;;;;;;;42.78;22.98;;;13.10;40.50;;;;;;4984426;28;21156;-85
2022/03/25 06:01:13;;;;;;;34.90;17.27;;;13.10;40.90;;;;;;4959493;28;20026;-88
2022/03/25 06:03:39;;;;;;;38.33;15.52;;;13.10;41.10;;;;;;4988643;28;20031;-87
2022/03/25 06:06:06;;;;;;;27.60;15.02;;;13.10;41.00;;;;;;4971609;28;20030;-86
2022/03/25 06:08:33;;;;;;;30.48;14.80;;;13.10;41.50;;;;;;5002069;28;20200;-87
2022/03/25 06:10:59;;;;;;;26.25;13.57;;;13.10;41.60;;;;;;4990181;28;20042;-87
2022/03/25 06:13:29;;;;;;;26.45;14.43;;;13.10;41.70;;;;;;5018960;28;20038;-86
2022/03/25 06:15:55;;;;;;;26.25;13.65;;;13.10;41.50;;;;;;4990741;28;20286;-88
2022/03/25 06:18:22;;;;;;;26.17;13.20;;;13.20;41.70;;;;;;4986700;28;20080;-89
2022/03/25 06:20:48;;;;;;;25.23;12.57;;;13.20;41.50;;;;;;5005570;28;20042;-88
2022/03/25 06:23:14;;;;;;;22.45;12.75;;;13.20;41.20;;;;;;4988255;28;20071;-89
2022/03/25 06:25:43;;;;;;;26.33;13.38;;;13.20;40.90;;;;;;4998928;28;20061;-85
2022/03/25 06:28:09;;;;;;;22.02;12.10;;;13.20;40.80;;;;;;5000855;28;20125;-87
2022/03/25 06:30:38;;;;;;;23.40;12.77;;;13.20;40.70;;;;;;4981696;28;20412;-88
2022/03/25 06:33:06;;;;;;;22.90;13.30;;;13.20;40.60;;;;;;4982323;28;20030;-85
2022/03/25 06:35:33;;;;;;;20.23;12.18;;;13.20;40.60;;;;;;4969883;28;20031;-87
2022/03/25 06:37:59;;;;;;;22.25;12.20;;;13.20;40.60;;;;;;4987000;28;20060;-88
2022/03/25 06:40:26;;;;;;;24.85;12.50;;;13.20;40.70;;;;;;4987264;28;20103;-83
2022/03/25 06:42:57;;;;;;;28.08;13.90;;;13.20;40.70;;;;;;4997710;28;20033;-87
2022/03/25 06:45:25;;;;;;;25.08;14.18;;;13.20;40.70;;;;;;4985298;28;20213;-86
2022/03/25 06:47:51;;;;;;;26.23;13.25;;;13.20;40.60;;;;;;4986244;28;20073;-86
2022/03/25 06:50:19;;;;;;;22.75;13.63;;;13.20;40.70;;;;;;4981634;28;20540;-86
2022/03/25 06:52:46;;;;;;;29.60;13.63;;;13.20;40.70;;;;;;4997106;28;20046;-87
2022/03/25 06:55:13;;;;;;;31.25;13.77;;;13.20;40.60;;;;;;4955643;28;20021;-85
2022/03/25 06:57:56;;;;;;;30.15;13.55;;;13.20;40.50;;;;;;4981309;28;20073;-85
2022/03/25 07:00:24;;;;;;;33.72;17.70;;;13.20;40.60;;;;;;4965556;28;20037;-85
2022/03/25 07:02:51;;;;;;;34.45;18.67;;;13.20;40.80;;;;;;4970755;28;20046;-86
2022/03/25 07:05:18;;;;;;;39.40;20.63;;;13.20;40.60;;;;;;4981770;28;20061;-86
2022/03/25 07:07:44;;;;;;;38.33;20.00;;;13.20;40.50;;;;;;4951602;28;20038;-87
2022/03/25 07:10:12;;;;;;;36.08;20.08;;;13.20;40.40;;;;;;4981957;28;20031;-87
2022/03/25 07:12:44;;;;;;;33.22;20.80;;;13.20;40.40;;;;;;4963313;28;20026;-86
2022/03/25 07:15:12;;;;;;;37.58;19.75;;;13.20;40.40;;;;;;4968389;28;20051;-88
2022/03/25 07:17:40;;;;;;;31.65;18.58;;;13.20;40.40;;;;;;4955845;28;20056;-87
2022/03/25 07:20:06;;;;;;;40.05;19.35;;;13.20;40.40;;;;;;4992056;28;20040;-86
2022/03/25 07:22:33;;;;;;;31.75;18.33;;;13.20;40.40;;;;;;4980936;28;20033;-82
2022/03/25 07:25:00;;;;;;;33.33;17.65;;;13.20;40.40;;;;;;4985578;28;20037;-84
2022/03/25 07:27:26;;;;;;;29.63;17.05;;;13.20;40.40;;;;;;4972860;28;20045;-88
2022/03/25 07:29:52;;;;;;;29.90;16.90;;;13.30;40.40;;;;;;4967321;28;20053;-89
2022/03/25 07:32:18;;;;;;;36.15;17.38;;;13.20;40.40;;;;;;4971858;28;20535;-90
2022/03/25 07:34:44;;;;;;;27.35;15.90;;;13.30;40.50;;;;;;4956162;28;20029;-89
2022/03/25 07:37:11;;;;;;;31.73;16.52;;;13.30;40.40;;;;;;4971787;28;20057;-91
2022/03/25 07:39:37;;;;;;;30.23;15.93;;;13.30;40.30;;;;;;4981166;28;20030;-86
2022/03/25 07:42:03;;;;;;;33.00;16.90;;;13.30;40.30;;;;;;4970692;28;20417;-89
2022/03/25 07:44:29;;;;;;;37.58;16.05;;;13.30;40.40;;;;;;4972381;28;20057;-88
2022/03/25 07:46:55;;;;;;;29.98;14.95;;;13.40;40.60;;;;;;4990565;28;20066;-89
2022/03/25 07:49:21;;;;;;;23.13;15.23;;;13.40;40.60;;;;;;5004027;28;20077;-88
2022/03/25 07:51:47;;;;;;;27.90;14.73;;;13.40;40.40;;;;;;4986515;28;20095;-91
2022/03/25 07:54:12;;;;;;;29.90;14.82;;;13.40;40.50;;;;;;4986161;28;20038;-89
2022/03/25 07:56:38;;;;;;;30.77;14.57;;;13.40;40.50;;;;;;4960617;28;20042;-88
2022/03/25 07:59:04;;;;;;;26.90;15.23;;;13.40;40.50;;;;;;4977642;28;20033;-89
2022/03/25 08:01:30;;;;;;;24.30;14.40;;;13.50;40.60;;;;;;4978760;28;20044;-88
2022/03/25 08:03:57;;;;;;;27.85;14.32;;;13.50;40.50;;;;;;4954152;28;20042;-88
2022/03/25 08:06:23;;;;;;;28.67;15.05;;;13.50;40.60;;;;;;4982303;28;20046;-88
2022/03/25 08:08:49;;;;;;;26.58;13.85;;;13.50;40.60;;;;;;4987486;28;20035;-82
2022/03/25 08:11:18;;;;;;;18.73;11.10;;;13.50;41.00;;;;;;5007164;28;20476;-86
2022/03/25 08:13:44;;;;;;;21.85;12.27;;;13.60;44.80;;;;;;4971260;28;20038;-87
2022/03/25 08:16:10;;;;;;;22.63;13.77;;;13.80;45.80;;;;;;4985749;28;20077;-96
2022/03/25 08:18:36;;;;;;;24.40;13.90;;;14.00;44.60;;;;;;4988625;28;20500;-88
2022/03/25 08:21:02;;;;;;;29.63;15.48;;;14.10;42.90;;;;;;5000934;28;20088;-91
2022/03/25 08:28:59;;;;;;;29.30;14.80;;;14.10;40.70;;;;;;4980672;28;20046;-87
2022/03/25 08:31:26;;;;;;;34.05;15.32;;;14.20;40.80;;;;;;4995457;28;20035;-88
2022/03/25 08:33:52;;;;;;;30.25;15.75;;;14.20;40.70;;;;;;4970128;28;20035;-88
2022/03/25 08:36:18;;;;;;;31.27;16.13;;;14.20;40.70;;;;;;4975261;28;20052;-89
2022/03/25 08:38:44;;;;;;;34.53;14.68;;;14.20;40.60;;;;;;4960736;28;20038;-88
2022/03/25 08:41:11;;;;;;;33.60;19.13;;;14.30;40.80;;;;;;4976133;28;20041;-89
2022/03/25 08:43:38;;;;;;;42.08;23.30;;;14.30;40.70;;;;;;4962848;28;20132;-88
2022/03/25 08:46:04;;;;;;;41.17;23.45;;;14.40;40.80;;;;;;4959085;28;20563;-87
2022/03/25 08:48:31;;;;;;;44.38;23.05;;;14.40;40.80;;;;;;4980697;28;20099;-85
2022/03/25 08:50:57;;;;;;;43.50;21.38;;;14.50;40.70;;;;;;4974497;28;20049;-88
2022/03/25 08:53:23;;;;;;;35.10;19.20;;;14.60;40.50;;;;;;4965527;28;20030;-87
2022/03/25 08:55:49;;;;;;;37.28;19.02;;;14.70;40.50;;;;;;4976512;28;20038;-86
2022/03/25 08:58:15;;;;;;;32.10;18.42;;;14.70;40.40;;;;;;4978893;28;20527;-89
2022/03/25 09:00:41;;;;;;;32.28;19.02;;;14.70;40.20;;;;;;4979839;28;20121;-86
2022/03/25 09:03:07;;;;;;;32.65;16.63;;;14.80;40.10;;;;;;4993572;28;20423;-87
2022/03/25 09:05:33;;;;;;;35.50;17.98;;;14.80;40.20;;;;;;4974728;28;20128;-87
2022/03/25 09:07:59;;;;;;;36.15;18.50;;;14.80;40.20;;;;;;4959469;28;20057;-84
2022/03/25 09:10:26;;;;;;;38.58;19.23;;;14.80;39.10;;;;;;4958923;28;20039;-88
2022/03/25 09:12:52;;;;;;;30.42;18.67;;;14.70;38.60;;;;;;4975306;28;20410;-89
2022/03/25 09:15:18;;;;;;;40.17;19.70;;;14.70;38.40;;;;;;4948281;28;20137;-89
2022/03/25 09:17:45;;;;;;;36.83;17.90;;;14.70;38.30;;;;;;4974856;28;20038;-88
2022/03/25 09:20:15;;;;;;;29.38;18.08;;;14.60;38.30;;;;;;4966737;28;20050;-88
2022/03/25 09:22:42;;;;;;;37.05;17.92;;;14.60;38.40;;;;;;4972938;28;20048;-87
2022/03/25 09:25:08;;;;;;;34.50;18.73;;;14.60;38.60;;;;;;4963603;28;20034;-85
2022/03/25 09:27:35;;;;;;;30.73;16.75;;;14.60;38.40;;;;;;4987187;28;20043;-81
2022/03/25 09:30:03;;;;;;;30.33;15.07;;;14.50;38.90;;;;;;4974209;28;20528;-82
2022/03/25 09:32:29;;;;;;;34.40;15.70;;;14.60;41.40;;;;;;4979502;28;20510;-84
2022/03/25 09:35:10;;;;;;;26.65;15.32;;;14.70;42.10;;;;;;4951991;28;20041;-85
2022/03/25 09:37:37;;;;;;;26.63;15.45;;;14.80;42.20;;;;;;4961355;28;20038;-85
2022/03/25 09:40:22;;;;;;;30.08;15.93;;;15.00;42.30;;;;;;4955805;28;20043;-84
2022/03/25 09:42:50;;;;;;;31.35;16.27;;;15.10;42.20;;;;;;4974365;28;20215;-85
2022/03/25 09:45:17;;;;;;;29.55;16.23;;;15.10;42.00;;;;;;4973290;28;20038;-88
2022/03/25 09:47:44;;;;;;;26.48;16.60;;;15.20;42.00;;;;;;4958699;28;20050;-82
2022/03/25 09:50:14;;;;;;;32.78;18.15;;;15.30;41.80;;;;;;4991669;28;20039;-83
2022/03/25 09:52:42;;;;;;;33.47;19.38;;;15.40;41.70;;;;;;4976080;28;20041;-83
2022/03/25 09:55:10;;;;;;;33.00;20.63;;;15.60;41.70;;;;;;4962816;28;20029;-87
2022/03/25 09:57:36;;;;;;;36.72;20.90;;;15.70;40.70;;;;;;4960604;28;20037;-85
2022/03/25 10:00:05;;;;;;;36.20;20.70;;;15.80;40.20;;;;;;4962513;28;20070;-86
2022/03/25 10:02:38;;;;;;;37.22;22.25;;;15.80;40.00;;;;;;4973427;28;20127;-84
2022/03/25 10:05:18;;;;;;;35.75;22.20;;;15.80;39.70;;;;;;4956030;28;20035;-85
2022/03/25 10:07:55;;;;;;;40.13;22.60;;;15.80;39.90;;;;;;4954659;28;20081;-84
2022/03/25 10:10:23;;;;;;;41.25;23.95;;;15.80;39.40;;;;;;4970599;28;20117;-89
2022/03/25 10:12:58;;;;;;;46.30;24.58;;;15.70;38.90;;;;;;4972213;28;20045;-93
2022/03/25 10:15:31;;;;;;;40.47;24.83;;;15.60;38.60;;;;;;4983217;28;20055;-84
2022/03/25 10:18:06;;;;;;;43.03;22.85;;;15.50;38.40;;;;;;4962954;28;20045;-94
2022/03/25 10:20:36;;;;;;;40.22;21.45;;;15.50;38.70;;;;;;4929322;28;20078;-94
2022/03/25 10:23:07;;;;;;;46.97;23.80;;;15.40;38.80;;;;;;4968603;28;20035;-96
2022/03/25 10:25:46;;;;;;;46.72;23.33;;;15.30;38.60;;;;;;4973734;28;20037;-94
2022/03/25 10:31:02;;;;;;;34.60;20.48;;;15.20;38.80;;;;;;4943699;29;20978;-86
2022/03/25 10:33:36;;;;;;;35.58;21.83;;;15.20;38.70;;;;;;4964484;28;20046;-84
2022/03/25 10:36:09;;;;;;;29.50;19.13;;;15.10;39.10;;;;;;4935095;28;20035;-88
2022/03/25 10:38:41;;;;;;;37.08;20.38;;;15.10;39.70;;;;;;4966011;28;20038;-86
2022/03/25 10:41:08;;;;;;;32.58;18.40;;;15.10;39.60;;;;;;4951530;28;20081;-86
2022/03/25 10:43:34;;;;;;;29.83;17.25;;;15.10;39.70;;;;;;4943203;28;20027;-87
2022/03/25 10:46:00;;;;;;;30.58;19.30;;;15.00;40.00;;;;;;4951765;28;20124;-85
2022/03/25 10:48:25;;;;;;;32.05;18.17;;;15.00;40.00;;;;;;4959432;28;20047;-88
2022/03/25 10:51:04;;;;;;;28.70;17.40;;;15.00;40.10;;;;;;4950242;28;20035;-87
2022/03/25 10:53:36;;;;;;;28.15;18.17;;;15.00;40.40;;;;;;4936237;28;20043;-86
2022/03/25 10:56:07;;;;;;;28.92;19.02;;;15.00;40.60;;;;;;4944473;28;20134;-85
2022/03/25 10:58:34;;;;;;;28.80;18.25;;;15.00;41.00;;;;;;4951493;28;20443;-85
2022/03/25 11:01:06;;;;;;;32.65;19.42;;;15.00;41.10;;;;;;4935785;28;20074;-87
2022/03/25 11:03:32;;;;;;;32.22;19.20;;;15.00;41.50;;;;;;4952114;28;20138;-89
2022/03/25 11:05:58;;;;;;;35.83;18.63;;;15.00;42.00;;;;;;4926892;28;20090;-87
2022/03/25 11:08:24;;;;;;;37.88;19.58;;;15.00;42.60;;;;;;4936595;28;20047;-86
2022/03/25 11:10:58;;;;;;;29.85;20.10;;;15.00;42.50;;;;;;4903504;28;20046;-86
2022/03/25 11:13:26;;;;;;;34.88;20.88;;;15.00;42.60;;;;;;4951902;28;20094;-88
2022/03/25 11:15:54;;;;;;;28.92;18.00;;;15.00;42.90;;;;;;4958112;28;20422;-86
2022/03/25 11:18:21;;;;;;;31.17;19.27;;;15.00;42.80;;;;;;4945129;28;20734;-87
2022/03/25 11:20:47;;;;;;;36.83;20.30;;;15.00;42.60;;;;;;4948058;28;20043;-88
2022/03/25 11:23:23;;;;;;;36.30;19.48;;;15.10;42.50;;;;;;4968324;28;20109;-86
2022/03/25 11:25:54;;;;;;;37.70;20.73;;;15.00;42.70;;;;;;4967529;28;20034;-86
2022/03/25 11:28:31;;;;;;;36.35;20.20;;;15.00;43.20;;;;;;4934119;28;20144;-85
2022/03/25 11:31:04;;;;;;;33.17;19.35;;;15.00;43.60;;;;;;4933963;28;20043;-86
2022/03/25 11:33:30;;;;;;;29.73;20.67;;;15.10;43.80;;;;;;4959571;28;20031;-86
2022/03/25 11:36:19;;;;;;;33.40;18.83;;;15.00;44.00;;;;;;4927197;28;20039;-86
2022/03/25 11:38:45;;;;;;;30.42;20.13;;;15.00;44.00;;;;;;4956445;28;20035;-86
2022/03/25 11:41:23;;;;;;;35.42;19.48;;;15.00;43.90;;;;;;4959979;28;20081;-88
2022/03/25 11:44:14;;;;;;;29.73;20.05;;;15.10;44.00;;;;;;4936810;28;20547;-88
2022/03/25 11:46:58;;;;;;;32.53;20.15;;;15.00;43.60;;;;;;4951146;28;20035;-90
2022/03/25 11:49:32;;;;;;;30.23;20.33;;;15.00;43.60;;;;;;4947283;28;20023;-90
2022/03/25 11:52:28;;;;;;;33.40;20.35;;;15.00;43.30;;;;;;4953226;28;20035;-92
2022/03/25 11:54:59;;;;;;;40.78;20.20;;;15.00;43.30;;;;;;4949154;28;20125;-90
2022/03/25 11:57:34;;;;;;;36.90;20.63;;;15.00;43.50;;;;;;4968583;28;20038;-91
2022/03/25 12:00:20;;;;;;;30.37;19.77;;;15.00;43.80;;;;;;4932315;28;20520;-90
2022/03/25 12:03:08;;;;;;;36.88;19.80;;;15.00;44.20;;;;;;4964061;28;20039;-91
2022/03/25 12:05:35;;;;;;;33.90;19.70;;;15.00;44.20;;;;;;4950491;28;20413;-88
2022/03/25 12:08:23;;;;;;;29.60;19.13;;;15.00;44.40;;;;;;4967228;28;20142;-88
2022/03/25 12:10:52;;;;;;;34.38;20.25;;;15.00;43.90;;;;;;4964596;28;20075;-90
2022/03/25 12:13:19;;;;;;;36.35;20.92;;;15.10;43.20;;;;;;4935929;28;20375;-90
2022/03/25 12:15:52;;;;;;;32.35;21.27;;;15.00;43.30;;;;;;4931480;28;20584;-91
2022/03/25 12:18:40;;;;;;;27.15;21.05;;;15.00;43.00;;;;;;4945781;28;20502;-91
2022/03/25 12:21:13;;;;;;;30.77;20.75;;;15.00;43.00;;;;;;4943849;28;20039;-90
2022/03/25 12:23:39;;;;;;;28.85;19.67;;;15.00;42.60;;;;;;4925778;28;20503;-90
2022/03/25 12:26:06;;;;;;;37.85;21.33;;;15.00;42.80;;;;;;4925477;28;20039;-90
2022/03/25 12:28:31;;;;;;;31.80;20.02;;;15.00;42.60;;;;;;4950792;28;20416;-90
2022/03/25 12:31:04;;;;;;;27.83;19.23;;;15.00;42.90;;;;;;4929372;28;20051;-90
2022/03/25 12:33:30;;;;;;;35.47;20.35;;;15.00;42.90;;;;;;4943173;28;20035;-90
2022/03/25 12:36:04;;;;;;;35.55;18.85;;;15.00;43.20;;;;;;4916649;28;20613;-87
2022/03/25 12:38:30;;;;;;;34.83;19.33;;;14.90;43.20;;;;;;4919752;28;20038;-86
2022/03/25 12:40:56;;;;;;;26.38;17.75;;;15.00;43.50;;;;;;4953340;28;20038;-89